Time;durP1;ratioP1;P1;durP2;ratioP2;P2;SDS_P1;SDS_P2;PMS_P1;PMS_P2;Temp;Humidity;BMP_temperature;BMP_pressure;BME280_temperature;BME280_humidity;BME280_pressure;Samples;Min_cycle;Max_cycle;Signal;HPM_P1;HPM_P2
2022/06/14 00:04:22;;;;;;;;;;;;;;;12.39;80.32;100600.52;2651400;87;20134;-88
2022/06/14 00:08:42;;;;;;;;;;;;;;;12.30;80.51;100595.94;2608330;90;20135;-87
2022/06/14 00:12:43;;;;;;;;;;;;;;;12.10;81.43;100600.30;2579756;90;20127;-87
2022/06/14 00:16:44;;;;;;;;;;;;;;;12.08;81.70;100602.22;2601709;89;20141;-87
2022/06/14 00:20:46;;;;;;;;;;;;;;;12.09;81.82;100598.61;2583831;90;20940;-88
2022/06/14 00:24:47;;;;;;;;;;;;;;;12.11;82.07;100603.33;2621036;89;20174;-87
2022/06/14 00:28:48;;;;;;;;;;;;;;;11.92;83.05;100595.48;2629752;89;20151;-88
2022/06/14 00:32:50;;;;;;;;;;;;;;;11.81;82.97;100603.04;2619964;88;20446;-88
2022/06/14 00:36:54;;;;;;;;;;;;;;;11.78;83.16;100605.93;2582756;90;20114;-88
2022/06/14 00:40:58;;;;;;;;;;;;;;;11.80;83.03;100613.34;2591729;89;20130;-88
2022/06/14 00:45:14;;;;;;;;;;;;;;;11.78;83.16;100612.59;2617344;88;20543;-88
2022/06/14 00:49:25;;;;;;;;;;;;;;;11.72;83.48;100621.09;2635246;88;20128;-87
2022/06/14 00:53:32;;;;;;;;;;;;;;;11.67;83.87;100631.30;2599856;89;20577;-87
2022/06/14 00:57:40;;;;;;;;;;;;;;;11.66;83.77;100624.27;2624894;89;20126;-88
2022/06/14 01:01:43;;;;;;;;;;;;;;;11.76;83.43;100620.37;2578340;90;20142;-88
2022/06/14 01:06:05;;;;;;;;;;;;;;;11.84;82.72;100624.11;2641053;86;20125;-87
2022/06/14 01:10:10;;;;;;;;;;;;;;;11.91;82.09;100623.12;2626185;89;20127;-88
2022/06/14 01:14:15;;;;;;;;;;;;;;;11.92;82.00;100618.62;2626543;89;20138;-88
2022/06/14 01:18:16;;;;;;;;;;;;;;;11.84;82.06;100627.23;2577319;90;20168;-88
2022/06/14 01:22:21;;;;;;;;;;;;;;;11.79;83.03;100635.64;2603039;89;20496;-88
2022/06/14 01:26:25;;;;;;;;;;;;;;;11.54;84.11;100638.94;2648429;87;20201;-88
2022/06/14 01:30:31;;;;;;;;;;;;;;;11.47;83.86;100631.55;2686757;87;20105;-88
2022/06/14 01:34:33;;;;;;;;;;;;;;;11.55;83.91;100637.96;2659184;87;20523;-88
2022/06/14 01:38:34;;;;;;;;;;;;;;;11.64;83.55;100639.04;2673419;86;20130;-88
2022/06/14 01:42:54;;;;;;;;;;;;;;;11.74;83.21;100636.98;2664936;86;20476;-88
2022/06/14 01:47:10;;;;;;;;;;;;;;;11.81;83.03;100637.69;2684116;86;20115;-88
2022/06/14 01:56:05;;;;;;;;;;;;;;;11.84;82.98;100644.09;2689965;86;20128;-88
2022/06/14 02:00:10;;;;;;;;;;;;;;;11.82;83.29;100650.04;2706561;86;20118;-87
2022/06/14 02:08:41;;;;;;;;;;;;;;;11.73;83.77;100651.27;2667452;87;20125;-88
2022/06/14 02:13:01;;;;;;;;;;;;;;;11.74;83.69;100651.13;2670645;86;20114;-88
2022/06/14 02:17:10;;;;;;;;;;;;;;;11.66;83.95;100652.25;2589365;89;20191;-89
2022/06/14 02:21:29;;;;;;;;;;;;;;;11.58;84.74;100657.69;2588927;89;20218;-88
2022/06/14 02:25:34;;;;;;;;;;;;;;;11.56;84.91;100662.30;2479598;92;20203;-89
2022/06/14 02:29:39;;;;;;;;;;;;;;;11.58;85.14;100662.19;2481961;93;20505;-89
2022/06/14 02:33:42;;;;;;;;;;;;;;;11.60;85.46;100664.24;2336626;98;20139;-88
2022/06/14 02:37:47;;;;;;;;;;;;;;;11.60;85.49;100668.74;2392120;97;20147;-89
2022/06/14 02:41:58;;;;;;;;;;;;;;;11.54;85.76;100664.24;2421878;95;21159;-88
2022/06/14 02:46:11;;;;;;;;;;;;;;;11.24;88.09;100674.19;2398111;97;20219;-88
2022/06/14 02:50:40;;;;;;;;;;;;;;;11.12;88.43;100670.67;2405775;96;20514;-88
2022/06/14 02:54:44;;;;;;;;;;;;;;;11.13;89.26;100679.02;2427456;96;20497;-88
2022/06/14 02:59:10;;;;;;;;;;;;;;;10.99;90.48;100682.77;2414715;96;20189;-88
2022/06/14 03:03:33;;;;;;;;;;;;;;;11.03;90.55;100676.73;2574194;89;20593;-88
2022/06/14 03:08:13;;;;;;;;;;;;;;;11.11;89.88;100686.28;2577413;88;20144;-88
2022/06/14 03:13:06;;;;;;;;;;;;;;;11.29;89.61;100698.16;2653859;86;20625;-88
2022/06/14 03:17:33;;;;;;;;;;;;;;;11.46;88.96;100699.98;2678681;86;20138;-88
2022/06/14 03:21:59;;;;;;;;;;;;;;;11.42;88.69;100702.53;2680726;86;20173;-88
2022/06/14 03:26:13;;;;;;;;;;;;;;;11.54;88.88;100705.54;2658039;86;20128;-88
2022/06/14 03:30:37;;;;;;;;;;;;;;;11.72;88.52;100713.04;2657121;87;20553;-88
2022/06/14 03:34:53;;;;;;;;;;;;;;;11.92;88.16;100711.92;2673802;87;20129;-88
2022/06/14 03:39:01;;;;;;;;;;;;;;;12.08;87.71;100725.73;2649641;87;20494;-87
2022/06/14 03:43:03;;;;;;;;;;;;;;;12.20;87.14;100715.88;2663737;87;20126;-89
2022/06/14 03:47:14;;;;;;;;;;;;;;;12.27;87.29;100722.90;2660116;86;20183;-88
2022/06/14 03:51:28;;;;;;;;;;;;;;;12.39;87.36;100729.91;2662939;86;20165;-88
2022/06/14 03:55:42;;;;;;;;;;;;;;;12.45;87.45;100729.86;2693385;86;20169;-86
2022/06/14 04:00:03;;;;;;;;;;;;;;;12.61;88.06;100732.11;2646207;86;20130;-87
2022/06/14 04:04:34;;;;;;;;;;;;;;;12.79;87.60;100726.21;2682039;86;20165;-87
2022/06/14 04:08:56;;;;;;;;;;;;;;;12.98;87.95;100732.16;2668927;86;20445;-89
2022/06/14 04:13:03;;;;;;;;;;;;;;;13.21;87.37;100720.84;2683547;85;20591;-87
2022/06/14 04:17:23;;;;;;;;;;;;;;;13.50;88.38;100726.84;2655362;87;20138;-88
2022/06/14 04:21:55;;;;;;;;;;;;;;;14.10;88.52;100725.20;2663941;86;20162;-86
2022/06/14 04:26:03;;;;;;;;;;;;;;;15.16;85.48;100716.45;2682588;86;20103;-88
2022/06/14 04:30:11;;;;;;;;;;;;;;;16.41;76.45;100722.29;2679746;86;20111;-87
2022/06/14 04:34:22;;;;;;;;;;;;;;;17.44;74.94;100722.71;2584590;89;20145;-87
2022/06/14 04:38:33;;;;;;;;;;;;;;;18.38;69.73;100731.30;2594282;88;20274;-87
2022/06/14 04:42:59;;;;;;;;;;;;;;;19.25;68.29;100729.41;2604574;89;20129;-87
2022/06/14 04:47:09;;;;;;;;;;;;;;;19.92;66.57;100731.91;2600570;90;20181;-87
2022/06/14 04:51:20;;;;;;;;;;;;;;;20.64;62.15;100721.30;2607287;89;20149;-86
2022/06/14 04:55:25;;;;;;;;;;;;;;;20.90;61.33;100720.58;2620507;89;20130;-87
2022/06/14 04:59:30;;;;;;;;;;;;;;;21.41;60.20;100726.64;2639563;88;20158;-87
2022/06/14 05:03:40;;;;;;;;;;;;;;;21.30;60.27;100721.17;2579502;88;20150;-87
2022/06/14 05:07:51;;;;;;;;;;;;;;;21.23;57.67;100725.16;2617636;89;20171;-87
2022/06/14 05:11:59;;;;;;;;;;;;;;;21.51;58.44;100728.56;2647043;87;20581;-87
2022/06/14 05:16:07;;;;;;;;;;;;;;;21.73;58.28;100736.78;2663060;88;20132;-87
2022/06/14 05:20:24;;;;;;;;;;;;;;;21.93;56.54;100733.48;2642867;87;20132;-88
2022/06/14 05:24:27;;;;;;;;;;;;;;;21.53;57.92;100737.86;2653520;88;20109;-87
2022/06/14 05:28:34;;;;;;;;;;;;;;;21.41;57.30;100741.52;2662607;87;20134;-87
2022/06/14 05:32:58;;;;;;;;;;;;;;;21.40;57.17;100733.93;2679746;86;20249;-87
2022/06/14 05:37:05;;;;;;;;;;;;;;;21.48;56.42;100737.06;2648105;87;20129;-87
2022/06/14 05:41:10;;;;;;;;;;;;;;;20.95;56.79;100753.34;2644727;87;20182;-87
2022/06/14 05:45:13;;;;;;;;;;;;;;;19.94;58.80;100759.56;2616118;88;20141;-86
2022/06/14 05:49:23;;;;;;;;;;;;;;;19.68;60.96;100757.44;2568308;90;20114;-87
2022/06/14 05:53:28;;;;;;;;;;;;;;;19.64;62.14;100755.25;2545575;90;20212;-88
2022/06/14 05:57:35;;;;;;;;;;;;;;;19.79;60.82;100747.29;2579635;89;20120;-87
2022/06/14 06:01:45;;;;;;;;;;;;;;;19.84;60.44;100747.07;2667120;86;20154;-87
2022/06/14 06:05:59;;;;;;;;;;;;;;;20.19;58.62;100744.56;2669549;86;20148;-87
2022/06/14 06:10:09;;;;;;;;;;;;;;;20.41;59.25;100742.39;2660552;87;20200;-87
2022/06/14 06:14:17;;;;;;;;;;;;;;;20.77;57.65;100742.80;2674263;86;20132;-87
2022/06/14 06:18:25;;;;;;;;;;;;;;;20.89;57.47;100741.87;2675200;86;20162;-87
2022/06/14 06:22:33;;;;;;;;;;;;;;;20.89;56.94;100748.64;2658164;87;20131;-87
2022/06/14 06:26:36;;;;;;;;;;;;;;;20.74;56.51;100745.87;2663690;86;20104;-88
2022/06/14 06:31:02;;;;;;;;;;;;;;;20.50;58.79;100747.75;2669435;86;20084;-87
2022/06/14 06:35:04;;;;;;;;;;;;;;;20.86;57.73;100744.95;2659170;87;20154;-87
2022/06/14 06:39:24;;;;;;;;;;;;;;;21.35;56.75;100749.03;2652083;87;20124;-86
2022/06/14 06:43:27;;;;;;;;;;;;;;;21.32;56.89;100750.77;2671788;86;20222;-87
2022/06/14 06:47:36;;;;;;;;;;;;;;;21.43;57.33;100745.41;2659497;86;20115;-88
2022/06/14 06:51:41;;;;;;;;;;;;;;;21.38;57.50;100752.72;2661355;87;20152;-88
2022/06/14 06:55:55;;;;;;;;;;;;;;;21.07;56.78;100754.55;2673507;87;20172;-87
2022/06/14 06:59:57;;;;;;;;;;;;;;;21.23;58.35;100744.10;2672000;87;20189;-86
2022/06/14 07:04:05;;;;;;;;;;;;;;;21.43;56.36;100747.61;2669157;86;20134;-86
2022/06/14 07:08:12;;;;;;;;;;;;;;;21.40;57.21;100747.95;2683979;86;20203;-86
2022/06/14 07:12:29;;;;;;;;;;;;;;;21.03;57.32;100752.39;2674009;86;20150;-87
2022/06/14 07:16:35;;;;;;;;;;;;;;;20.93;58.51;100753.51;2706327;85;20139;-88
2022/06/14 07:20:52;;;;;;;;;;;;;;;20.99;58.36;100747.88;2685166;86;20448;-87
2022/06/14 07:25:00;;;;;;;;;;;;;;;21.14;56.38;100747.08;2677772;87;20208;-86
2022/06/14 07:29:08;;;;;;;;;;;;;;;20.54;57.54;100755.82;2688787;85;20120;-87
2022/06/14 07:33:09;;;;;;;;;;;;;;;20.57;59.76;100755.45;2671164;85;20533;-86
2022/06/14 07:37:26;;;;;;;;;;;;;;;20.41;58.87;100755.90;2680373;87;20153;-87
2022/06/14 07:41:40;;;;;;;;;;;;;;;20.61;58.60;100755.95;2685843;86;20155;-87
2022/06/14 07:45:45;;;;;;;;;;;;;;;20.61;59.16;100760.83;2637926;86;20138;-87
2022/06/14 07:49:53;;;;;;;;;;;;;;;20.58;57.15;100761.72;2679636;86;20116;-87
2022/06/14 07:54:12;;;;;;;;;;;;;;;20.10;57.64;100754.08;2679559;86;20139;-87
2022/06/14 07:58:26;;;;;;;;;;;;;;;19.65;59.28;100751.05;2662465;86;20153;-86
2022/06/14 08:02:34;;;;;;;;;;;;;;;19.45;59.50;100750.59;2651782;85;20248;-86
2022/06/14 08:06:47;;;;;;;;;;;;;;;19.37;58.90;100773.55;2641487;86;20133;-87
2022/06/14 08:10:52;;;;;;;;;;;;;;;19.59;57.87;100758.98;2669211;86;20198;-87
2022/06/14 08:15:09;;;;;;;;;;;;;;;19.92;59.59;100767.00;2629875;87;20163;-87
2022/06/14 08:19:16;;;;;;;;;;;;;;;20.14;56.18;100769.92;2673040;87;20540;-88
2022/06/14 08:23:25;;;;;;;;;;;;;;;20.46;55.76;100776.16;2672257;86;20132;-87
2022/06/14 08:27:29;;;;;;;;;;;;;;;20.25;53.83;100764.13;2627278;87;20127;-87
2022/06/14 08:31:46;;;;;;;;;;;;;;;20.01;54.48;100760.52;2666690;86;20146;-87
2022/06/14 08:35:56;;;;;;;;;;;;;;;20.03;55.80;100763.89;2663865;87;20186;-86
2022/06/14 08:40:16;;;;;;;;;;;;;;;20.52;53.83;100760.05;2682795;86;20201;-86
2022/06/14 08:44:22;;;;;;;;;;;;;;;20.75;53.34;100769.17;2690607;86;20450;-89
2022/06/14 08:48:50;;;;;;;;;;;;;;;20.22;53.00;100756.36;2635916;87;20178;-86
2022/06/14 08:53:11;;;;;;;;;;;;;;;19.89;52.38;100751.12;2668867;85;20162;-85
2022/06/14 08:57:34;;;;;;;;;;;;;;;20.54;53.42;100754.47;2657612;86;20132;-88
2022/06/14 09:02:01;;;;;;;;;;;;;;;20.52;52.50;100754.64;2651130;88;20116;-87
2022/06/14 09:06:15;;;;;;;;;;;;;;;20.22;50.99;100752.31;2643659;87;20272;-87
2022/06/14 09:10:25;;;;;;;;;;;;;;;19.72;50.66;100747.14;2629900;88;20133;-87
2022/06/14 09:14:52;;;;;;;;;;;;;;;19.57;50.81;100757.83;2675233;86;20123;-86
2022/06/14 09:19:00;;;;;;;;;;;;;;;20.08;50.94;100752.07;2648173;87;20182;-89
2022/06/14 09:23:23;;;;;;;;;;;;;;;20.30;51.82;100742.83;2648063;88;20158;-89
2022/06/14 09:27:28;;;;;;;;;;;;;;;20.10;51.62;100754.58;2642732;86;20183;-88
2022/06/14 09:31:45;;;;;;;;;;;;;;;20.17;51.24;100753.36;2621781;87;29389;-89
2022/06/14 09:35:50;;;;;;;;;;;;;;;20.39;50.98;100744.43;2648963;87;20258;-88
2022/06/14 09:40:28;;;;;;;;;;;;;;;20.68;50.11;100741.53;2686382;85;20102;-88
2022/06/14 09:44:35;;;;;;;;;;;;;;;20.74;49.39;100745.87;2660483;87;20111;-89
2022/06/14 09:49:04;;;;;;;;;;;;;;;20.86;49.47;100751.22;2689065;85;20151;-88
2022/06/14 09:53:15;;;;;;;;;;;;;;;21.11;49.48;100745.56;2655164;87;20119;-88
2022/06/14 09:57:40;;;;;;;;;;;;;;;20.87;49.34;100753.39;2668076;86;20135;-88
2022/06/14 10:01:44;;;;;;;;;;;;;;;21.16;49.93;100729.62;2695630;86;20314;-89
2022/06/14 10:05:52;;;;;;;;;;;;;;;21.29;48.86;100733.03;2598984;88;20139;-88
2022/06/14 10:10:18;;;;;;;;;;;;;;;21.09;47.79;100735.45;2625335;88;20134;-89
2022/06/14 10:14:26;;;;;;;;;;;;;;;20.79;46.85;100728.59;2607932;88;20207;-89
2022/06/14 10:18:49;;;;;;;;;;;;;;;20.90;46.00;100730.89;2602143;88;20162;-88
2022/06/14 10:23:11;;;;;;;;;;;;;;;20.76;47.44;100731.16;2622944;87;20130;-91
2022/06/14 10:32:05;;;;;;;;;;;;;;;21.08;47.54;100733.77;2521402;92;20171;-93
2022/06/14 10:36:22;;;;;;;;;;;;;;;21.00;48.35;100725.23;2636915;88;20201;-87
2022/06/14 10:40:27;;;;;;;;;;;;;;;21.28;48.49;100711.06;2635640;88;20303;-92
2022/06/14 10:44:34;;;;;;;;;;;;;;;21.48;46.84;100720.82;2651783;87;20132;-90
2022/06/14 10:48:57;;;;;;;;;;;;;;;21.77;49.49;100721.83;2663187;87;20128;-89
2022/06/14 10:53:11;;;;;;;;;;;;;;;21.83;47.36;100717.53;2654744;86;20137;-90
2022/06/14 10:57:15;;;;;;;;;;;;;;;21.60;47.47;100700.88;2685212;86;20096;-89
2022/06/14 11:01:54;;;;;;;;;;;;;;;21.46;47.91;100712.05;2685141;84;20145;-90
2022/06/14 11:06:15;;;;;;;;;;;;;;;21.20;48.34;100711.98;2609062;88;20089;-90
2022/06/14 11:10:36;;;;;;;;;;;;;;;21.59;48.72;100709.17;2568057;89;20676;-90
2022/06/14 11:14:50;;;;;;;;;;;;;;;22.10;48.35;100709.70;2535896;92;20145;-89
2022/06/14 11:19:20;;;;;;;;;;;;;;;22.11;46.65;100710.88;2558681;91;20168;-89
2022/06/14 11:23:20;;;;;;;;;;;;;;;22.18;46.80;100712.80;2529621;90;20147;-89
2022/06/14 11:27:27;;;;;;;;;;;;;;;21.82;46.37;100715.36;2614982;89;20100;-90
2022/06/14 11:31:41;;;;;;;;;;;;;;;21.77;48.04;100710.18;2591713;89;20108;-90
2022/06/14 11:36:06;;;;;;;;;;;;;;;22.02;49.06;100710.69;2587296;89;20128;-90
2022/06/14 11:40:21;;;;;;;;;;;;;;;22.17;47.01;100704.36;2593474;89;20114;-96
2022/06/14 11:44:38;;;;;;;;;;;;;;;22.41;46.17;100697.72;2576216;89;20208;-90
2022/06/14 11:48:40;;;;;;;;;;;;;;;;;;2654191;86;20166;-90
2022/06/14 11:52:46;;;;;;;;;;;;;;;;;;2667365;85;20135;-88
2022/06/14 11:56:59;;;;;;;;;;;;;;;21.96;46.17;100689.77;2655742;86;20107;-88
2022/06/14 12:01:07;;;;;;;;;;;;;;;21.69;45.88;100697.59;2647138;86;20474;-88
2022/06/14 12:05:38;;;;;;;;;;;;;;;21.61;48.13;100697.14;2663153;86;20150;-88
2022/06/14 12:10:00;;;;;;;;;;;;;;;21.74;48.72;100691.08;2659301;87;20135;-88
2022/06/14 12:14:22;;;;;;;;;;;;;;;21.72;47.93;100697.20;2666374;86;20114;-88
2022/06/14 12:18:24;;;;;;;;;;;;;;;21.53;45.99;100699.97;2657337;86;20158;-86
2022/06/14 12:22:29;;;;;;;;;;;;;;;21.53;48.26;100695.38;2663402;87;20465;-87
2022/06/14 12:26:40;;;;;;;;;;;;;;;21.47;47.26;100693.44;2632704;87;20118;-88
2022/06/14 12:30:42;;;;;;;;;;;;;;;21.70;45.69;100699.27;2673321;87;20110;-88
2022/06/14 12:34:49;;;;;;;;;;;;;;;21.85;47.38;100690.28;2661007;87;20158;-87
2022/06/14 12:38:53;;;;;;;;;;;;;;;21.94;46.21;100676.93;2686905;86;20116;-88
2022/06/14 12:43:14;;;;;;;;;;;;;;;21.83;47.72;100687.75;2659486;85;20146;-88
2022/06/14 12:47:43;;;;;;;;;;;;;;;22.08;48.00;100685.53;2621809;88;20128;-88
2022/06/14 12:52:00;;;;;;;;;;;;;;;22.04;45.92;100689.66;2646354;88;20183;-88
2022/06/14 12:56:13;;;;;;;;;;;;;;;21.91;47.78;100684.95;2616690;88;20157;-88
2022/06/14 13:00:24;;;;;;;;;;;;;;;22.18;46.74;100680.30;2614008;88;20122;-88
2022/06/14 13:04:37;;;;;;;;;;;;;;;22.36;46.38;100675.27;2580795;89;20187;-88
2022/06/14 13:09:11;;;;;;;;;;;;;;;22.36;44.71;100672.55;2511990;92;20301;-88
2022/06/14 13:13:19;;;;;;;;;;;;;;;22.34;44.77;100675.98;2554043;91;20286;-88
2022/06/14 13:17:27;;;;;;;;;;;;;;;22.27;47.68;100675.09;2551820;91;20146;-88
2022/06/14 13:21:37;;;;;;;;;;;;;;;22.54;45.33;100668.57;2535043;91;20211;-89
2022/06/14 13:26:01;;;;;;;;;;;;;;;22.70;45.87;100674.75;2553924;91;20139;-88
2022/06/14 13:30:20;;;;;;;;;;;;;;;23.00;44.23;100669.12;2483648;93;20166;-88
2022/06/14 13:34:42;;;;;;;;;;;;;;;23.18;44.78;100664.53;2576701;89;20122;-89
2022/06/14 13:39:03;;;;;;;;;;;;;;;23.12;43.69;100663.45;2560542;90;20236;-88
2022/06/14 13:43:39;;;;;;;;;;;;;;;23.52;43.46;100656.88;2584255;88;20187;-87
2022/06/14 13:47:47;;;;;;;;;;;;;;;23.77;44.45;100649.55;2617468;87;21349;-89
2022/06/14 13:52:06;;;;;;;;;;;;;;;23.84;43.90;100646.03;2676175;85;20118;-87
2022/06/14 13:56:14;;;;;;;;;;;;;;;23.99;43.07;100650.77;2662220;86;20261;-88
2022/06/14 14:00:22;;;;;;;;;;;;;;;23.63;41.83;100658.71;2678340;86;20314;-88
2022/06/14 14:04:42;;;;;;;;;;;;;;;23.52;41.08;100656.88;2688246;86;20206;-93
2022/06/14 14:09:14;;;;;;;;;;;;;;;23.77;42.16;100649.55;2676044;85;20257;-89
2022/06/14 14:13:24;;;;;;;;;;;;;;;23.76;41.95;100643.80;2579850;89;20204;-89
2022/06/14 14:17:34;;;;;;;;;;;;;;;23.86;42.06;100658.34;2590545;89;20161;-88
2022/06/14 14:21:41;;;;;;;;;;;;;;;24.01;42.34;100662.27;2613369;89;20145;-88
2022/06/14 14:25:57;;;;;;;;;;;;;;;24.28;42.97;100650.09;2595640;90;20202;-90
2022/06/14 14:30:15;;;;;;;;;;;;;;;24.24;41.09;100656.45;2558884;90;20160;-89
2022/06/14 14:34:40;;;;;;;;;;;;;;;24.14;41.09;100649.75;2592548;89;20210;-89
2022/06/14 14:38:57;;;;;;;;;;;;;;;24.28;42.60;100646.55;2463814;94;20233;-90
2022/06/14 14:43:17;;;;;;;;;;;;;;;24.37;40.91;100640.70;2462872;93;20132;-89
2022/06/14 14:47:25;;;;;;;;;;;;;;;24.42;40.46;100637.33;2512338;90;20159;-89
2022/06/14 14:51:53;;;;;;;;;;;;;;;24.66;42.04;100626.34;2538091;90;20177;-89
2022/06/14 14:56:20;;;;;;;;;;;;;;;24.65;41.09;100638.78;2550493;91;20164;-88
2022/06/14 15:09:25;;;;;;;;;;;;;;;24.50;42.16;100624.05;2450173;95;20158;-90
2022/06/14 15:13:48;;;;;;;;;;;;;;;24.25;41.18;100631.48;2525213;91;20487;-91
2022/06/14 15:22:18;;;;;;;;;;;;;;;23.69;42.19;100630.73;2567065;90;20129;-91
2022/06/14 15:26:21;;;;;;;;;;;;;;;23.58;41.98;100630.80;2541929;90;20174;-91
2022/06/14 15:30:41;;;;;;;;;;;;;;;23.68;43.29;100627.70;2535272;91;20148;-92
2022/06/14 15:34:48;;;;;;;;;;;;;;;23.42;41.96;100621.66;2530060;92;20187;-91
2022/06/14 15:38:54;;;;;;;;;;;;;;;23.36;43.06;100620.59;2525471;91;20439;-91
2022/06/14 15:43:01;;;;;;;;;;;;;;;23.19;42.83;100623.64;2632400;88;20120;-90
2022/06/14 15:47:06;;;;;;;;;;;;;;;23.18;43.55;100613.80;2587482;89;20142;-89
2022/06/14 15:51:18;;;;;;;;;;;;;;;23.27;43.27;100620.45;2603250;89;20144;-89
2022/06/14 15:55:22;;;;;;;;;;;;;;;23.28;42.54;100629.73;2601774;89;20152;-90
2022/06/14 15:59:35;;;;;;;;;;;;;;;23.02;42.87;100620.94;2606437;89;20219;-89
2022/06/14 16:03:40;;;;;;;;;;;;;;;22.76;43.20;100612.94;2644698;87;20159;-92
2022/06/14 16:08:02;;;;;;;;;;;;;;;22.71;43.71;100618.12;2597686;88;20165;-91
2022/06/14 16:12:23;;;;;;;;;;;;;;;22.72;43.85;100621.16;2593304;88;20136;-88
2022/06/14 16:16:34;;;;;;;;;;;;;;;22.70;44.00;100624.59;2670181;86;20218;-87
2022/06/14 16:20:35;;;;;;;;;;;;;;;22.62;43.68;100620.16;2669909;86;20636;-88
2022/06/14 16:24:39;;;;;;;;;;;;;;;22.60;44.23;100627.64;2653960;87;20161;-88
2022/06/14 16:28:47;;;;;;;;;;;;;;;22.48;43.97;100628.17;2658836;87;20136;-89
2022/06/14 16:33:11;;;;;;;;;;;;;;;22.34;44.71;100629.09;2662359;87;20121;-89
2022/06/14 16:37:22;;;;;;;;;;;;;;;22.24;44.85;100626.72;2678277;86;20098;-88
2022/06/14 16:41:43;;;;;;;;;;;;;;;22.05;44.52;100630.89;2654716;87;20155;-89
2022/06/14 16:46:03;;;;;;;;;;;;;;;21.93;45.66;100640.05;2659658;86;20433;-89
2022/06/14 16:50:26;;;;;;;;;;;;;;;21.78;47.12;100650.94;2656612;85;20599;-88
2022/06/14 16:54:37;;;;;;;;;;;;;;;21.61;46.75;100652.98;2674306;86;20154;-88
2022/06/14 16:59:07;;;;;;;;;;;;;;;21.45;47.43;100653.55;2670508;86;20163;-88
2022/06/14 17:03:36;;;;;;;;;;;;;;;21.35;47.71;100647.58;2670621;86;20114;-89
2022/06/14 17:07:47;;;;;;;;;;;;;;;21.16;47.59;100647.13;2657743;87;20416;-89
2022/06/14 17:11:58;;;;;;;;;;;;;;;21.07;48.26;100644.20;2672925;87;20133;-89
2022/06/14 17:16:15;;;;;;;;;;;;;;;20.91;48.16;100644.70;2672196;87;20196;-89
2022/06/14 17:20:31;;;;;;;;;;;;;;;20.84;49.74;100643.77;2653180;87;20154;-89
2022/06/14 17:24:57;;;;;;;;;;;;;;;20.72;48.46;100647.91;2652990;88;20122;-88
2022/06/14 17:33:24;;;;;;;;;;;;;;;20.52;49.16;100648.43;2689691;86;20162;-89
2022/06/14 17:37:34;;;;;;;;;;;;;;;20.41;50.03;100656.47;2662299;86;20129;-87
2022/06/14 17:41:39;;;;;;;;;;;;;;;20.27;49.90;100656.75;2664563;87;20570;-89
2022/06/14 17:45:47;;;;;;;;;;;;;;;20.16;49.83;100644.52;2661131;87;20149;-89
2022/06/14 17:49:58;;;;;;;;;;;;;;;20.06;50.76;100656.05;2675722;87;20133;-88
2022/06/14 17:54:22;;;;;;;;;;;;;;;19.97;51.36;100660.66;2664688;86;20148;-89
2022/06/14 17:58:55;;;;;;;;;;;;;;;19.80;50.47;100667.47;2676829;86;20176;-88
2022/06/14 18:03:03;;;;;;;;;;;;;;;19.65;51.12;100666.53;2649981;87;20126;-89
2022/06/14 18:07:04;;;;;;;;;;;;;;;19.49;51.68;100669.67;2676375;86;20178;-86
2022/06/14 18:11:11;;;;;;;;;;;;;;;19.37;51.98;100662.97;2652606;87;20145;-88
2022/06/14 18:15:22;;;;;;;;;;;;;;;19.31;52.31;100667.72;2624842;88;20140;-89
2022/06/14 18:23:58;;;;;;;;;;;;;;;19.02;53.51;100675.38;2673727;87;20113;-88
2022/06/14 18:27:59;;;;;;;;;;;;;;;18.80;53.25;100660.23;2669799;87;20431;-89
2022/06/14 18:32:03;;;;;;;;;;;;;;;18.70;53.71;100673.89;2616046;88;20165;-88
2022/06/14 18:36:09;;;;;;;;;;;;;;;18.61;53.82;100672.72;2621305;89;20119;-89
2022/06/14 18:40:20;;;;;;;;;;;;;;;18.54;54.05;100681.98;2634769;89;20233;-89
2022/06/14 18:44:27;;;;;;;;;;;;;;;18.46;54.43;100680.13;2573574;90;20491;-88
2022/06/14 18:48:34;;;;;;;;;;;;;;;18.37;54.76;100681.11;2570483;90;20171;-88
2022/06/14 18:52:37;;;;;;;;;;;;;;;18.27;55.05;100688.86;2657769;86;20165;-89
2022/06/14 18:56:42;;;;;;;;;;;;;;;18.18;54.83;100695.26;2661513;87;20126;-87
2022/06/14 19:00:46;;;;;;;;;;;;;;;18.06;55.48;100692.02;2712010;86;20123;-89
2022/06/14 19:04:47;;;;;;;;;;;;;;;17.93;55.97;100701.05;2695174;86;20166;-93
2022/06/14 19:09:19;;;;;;;;;;;;;;;17.77;56.41;100704.03;2677193;84;20221;-93
2022/06/14 19:13:30;;;;;;;;;;;;;;;17.61;56.61;100698.59;2686364;84;20972;-91
2022/06/14 19:17:44;;;;;;;;;;;;;;;17.52;56.30;100711.16;2704315;85;20179;-87
2022/06/14 19:22:10;;;;;;;;;;;;;;;17.40;56.29;100705.22;2679121;85;20152;-89
2022/06/14 19:26:28;;;;;;;;;;;;;;;17.34;56.51;100713.94;2667958;86;20118;-88
2022/06/14 19:30:39;;;;;;;;;;;;;;;17.27;56.82;100720.45;2636317;87;20134;-88
2022/06/14 19:34:49;;;;;;;;;;;;;;;17.20;57.12;100724.27;2680494;85;20128;-92
2022/06/14 19:38:54;;;;;;;;;;;;;;;17.13;57.39;100724.05;2685624;86;20462;-91
2022/06/14 19:42:58;;;;;;;;;;;;;;;17.08;57.26;100726.86;2663223;86;20141;-89
2022/06/14 19:47:03;;;;;;;;;;;;;;;17.02;57.38;100722.98;2688776;86;20141;-88
2022/06/14 19:51:04;;;;;;;;;;;;;;;16.98;56.72;100730.52;2656093;86;20258;-87
2022/06/14 19:59:42;;;;;;;;;;;;;;;16.88;57.12;100736.44;2671340;86;20123;-89
2022/06/14 20:03:46;;;;;;;;;;;;;;;16.77;59.40;100734.02;2649966;87;20124;-89
2022/06/14 20:07:49;;;;;;;;;;;;;;;16.48;61.36;100739.98;2673845;86;20135;-88
2022/06/14 20:11:51;;;;;;;;;;;;;;;16.27;61.60;100741.61;2686429;86;20116;-87
2022/06/14 20:16:00;;;;;;;;;;;;;;;16.14;62.90;100744.66;2660582;86;20477;-90
2022/06/14 20:20:05;;;;;;;;;;;;;;;16.02;63.20;100747.23;2683374;86;20124;-89
2022/06/14 20:24:08;;;;;;;;;;;;;;;15.90;61.80;100743.88;2689323;85;20123;-89
2022/06/14 20:28:15;;;;;;;;;;;;;;;15.82;62.11;100741.43;2666755;86;20449;-88
2022/06/14 20:32:14;;;;;;;;;;;;;;;15.72;62.21;100747.32;2669789;86;20138;-89
2022/06/14 20:36:24;;;;;;;;;;;;;;;15.59;63.13;100746.84;2668318;86;20183;-89
2022/06/14 20:40:28;;;;;;;;;;;;;;;15.38;66.12;100746.56;2676583;86;20092;-88
2022/06/14 20:44:29;;;;;;;;;;;;;;;15.09;66.78;100750.14;2669413;85;20133;-89
2022/06/14 20:48:32;;;;;;;;;;;;;;;14.96;65.95;100751.31;2645506;87;20664;-88
2022/06/14 20:52:34;;;;;;;;;;;;;;;14.90;66.07;100751.86;2664143;86;20127;-87
2022/06/14 20:56:39;;;;;;;;;;;;;;;14.80;66.30;100751.87;2673668;85;20183;-89
2022/06/14 21:00:42;;;;;;;;;;;;;;;14.74;66.77;100754.27;2649153;87;20173;-88
2022/06/14 21:04:45;;;;;;;;;;;;;;;14.67;67.56;100758.83;2678683;86;20167;-88
2022/06/14 21:08:49;;;;;;;;;;;;;;;14.60;67.87;100760.39;2654352;86;20154;-89
2022/06/14 21:12:54;;;;;;;;;;;;;;;14.50;68.08;100765.73;2669950;86;20109;-87
2022/06/14 21:16:58;;;;;;;;;;;;;;;14.41;68.12;100763.88;2668122;86;20161;-88
2022/06/14 21:21:01;;;;;;;;;;;;;;;14.32;68.36;100772.25;2667808;86;20178;-89
2022/06/14 21:25:03;;;;;;;;;;;;;;;14.26;69.42;100775.48;2655884;86;20349;-88
2022/06/14 21:29:07;;;;;;;;;;;;;;;14.11;70.31;100775.04;2663401;86;20195;-89
2022/06/14 21:33:09;;;;;;;;;;;;;;;13.97;70.73;100778.95;2586050;90;20120;-89
2022/06/14 21:37:13;;;;;;;;;;;;;;;13.80;70.48;100781.75;2597266;88;20116;-87
2022/06/14 21:41:18;;;;;;;;;;;;;;;13.65;70.58;100782.61;2631803;86;20254;-89
2022/06/14 21:45:25;;;;;;;;;;;;;;;13.58;71.74;100778.29;2636677;86;20555;-89
2022/06/14 21:49:27;;;;;;;;;;;;;;;13.53;71.43;100776.01;2656423;86;20510;-89
2022/06/14 21:53:30;;;;;;;;;;;;;;;13.53;72.02;100787.20;2648393;87;20140;-88
2022/06/14 21:57:33;;;;;;;;;;;;;;;13.50;71.49;100779.45;2676576;86;20144;-88
2022/06/14 22:01:50;;;;;;;;;;;;;;;13.48;71.48;100774.23;2694182;85;20158;-88
2022/06/14 22:05:55;;;;;;;;;;;;;;;13.44;71.64;100776.82;2663138;86;20112;-87
2022/06/14 22:09:56;;;;;;;;;;;;;;;13.37;71.06;100776.47;2657204;86;20150;-88
2022/06/14 22:13:57;;;;;;;;;;;;;;;13.32;71.06;100772.48;2635932;86;20185;-89
2022/06/14 22:17:58;;;;;;;;;;;;;;;13.22;71.62;100774.62;2680414;86;20153;-88